Time;durP1;ratioP1;P1;durP2;ratioP2;P2;SDS_P1;SDS_P2;PMS_P1;PMS_P2;Temp;Humidity;BMP_temperature;BMP_pressure;BME280_temperature;BME280_humidity;BME280_pressure;Samples;Min_cycle;Max_cycle;Signal;HPM_P1;HPM_P2
2021/07/11 00:01:21;;;;;;;7.05;5.80;;;19.40;99.90;;;;;;5054896;28;20029;-70
2021/07/11 00:03:46;;;;;;;10.13;5.85;;;19.40;99.90;;;;;;5054557;28;20074;-70
2021/07/11 00:06:12;;;;;;;6.30;5.03;;;19.30;99.90;;;;;;5055351;28;20032;-70
2021/07/11 00:08:37;;;;;;;6.72;4.95;;;19.20;99.90;;;;;;5055162;28;20418;-69
2021/07/11 00:11:03;;;;;;;5.95;5.40;;;19.30;99.90;;;;;;5071634;28;20029;-70
2021/07/11 00:13:29;;;;;;;8.65;4.93;;;19.40;99.90;;;;;;5055127;28;20032;-70
2021/07/11 00:15:54;;;;;;;5.93;5.32;;;19.40;99.90;;;;;;5054185;28;20573;-70
2021/07/11 00:18:20;;;;;;;6.35;5.45;;;19.40;99.90;;;;;;5054558;28;20020;-70
2021/07/11 00:20:46;;;;;;;6.57;5.80;;;19.30;99.90;;;;;;5072441;28;20359;-69
2021/07/11 00:23:12;;;;;;;8.73;5.80;;;19.30;99.90;;;;;;5054780;28;20098;-71
2021/07/11 00:25:37;;;;;;;8.90;6.53;;;19.30;99.90;;;;;;5083268;28;20048;-70
2021/07/11 00:28:03;;;;;;;7.45;6.60;;;19.20;99.90;;;;;;5091641;28;20028;-69
2021/07/11 00:30:29;;;;;;;10.07;6.65;;;18.70;99.90;;;;;;5092325;28;20059;-68
2021/07/11 00:32:55;;;;;;;18.48;7.35;;;18.60;99.90;;;;;;5091275;28;20024;-69
2021/07/11 00:35:21;;;;;;;6.78;6.13;;;18.50;99.90;;;;;;5091694;28;20028;-69
2021/07/11 00:37:46;;;;;;;8.90;8.00;;;18.60;99.90;;;;;;5092547;28;20024;-70
2021/07/11 00:40:13;;;;;;;9.85;8.50;;;18.40;99.90;;;;;;5093090;28;20024;-69
2021/07/11 00:42:40;;;;;;;9.40;7.65;;;18.50;99.90;;;;;;5090731;28;20035;-69
2021/07/11 00:45:08;;;;;;;7.80;7.10;;;18.50;99.90;;;;;;5091771;28;20476;-70
2021/07/11 00:47:37;;;;;;;7.13;6.43;;;18.50;99.90;;;;;;5092552;28;20128;-71
2021/07/11 00:50:06;;;;;;;7.75;6.72;;;18.60;99.90;;;;;;5091851;28;20027;-70
2021/07/11 00:52:32;;;;;;;6.78;6.07;;;18.50;99.90;;;;;;5090949;28;20044;-70
2021/07/11 00:54:58;;;;;;;7.82;6.55;;;18.60;99.90;;;;;;5090350;28;20032;-70
2021/07/11 00:57:23;;;;;;;6.75;5.18;;;18.60;99.90;;;;;;5090672;28;20047;-70
2021/07/11 00:59:49;;;;;;;8.10;5.15;;;18.50;99.90;;;;;;5090625;28;20169;-70
2021/07/11 01:02:20;;;;;;;5.78;4.85;;;18.60;99.90;;;;;;5092364;28;20065;-70
2021/07/11 01:04:58;;;;;;;7.35;5.10;;;18.50;99.90;;;;;;5090595;28;20106;-71
2021/07/11 01:07:33;;;;;;;5.25;4.30;;;18.50;99.90;;;;;;5090905;28;20527;-70
2021/07/11 01:10:05;;;;;;;6.53;5.13;;;18.40;99.90;;;;;;5089789;28;20361;-70
2021/07/11 01:12:37;;;;;;;6.05;4.95;;;18.40;99.90;;;;;;5091332;28;20093;-70
2021/07/11 01:15:05;;;;;;;8.15;5.38;;;18.40;99.90;;;;;;5089739;28;20039;-70
2021/07/11 01:17:31;;;;;;;7.05;5.63;;;18.40;99.90;;;;;;5090251;28;20177;-70
2021/07/11 01:20:22;;;;;;;5.63;4.95;;;18.50;99.90;;;;;;5090950;28;20469;-71
2021/07/11 01:22:51;;;;;;;6.00;5.43;;;18.50;99.90;;;;;;5091096;28;20180;-71
2021/07/11 01:25:44;;;;;;;6.45;5.85;;;18.50;99.90;;;;;;5078703;28;20197;-70
2021/07/11 01:28:18;;;;;;;6.15;5.47;;;18.60;99.90;;;;;;5061098;28;20059;-69
2021/07/11 01:30:45;;;;;;;6.45;5.80;;;18.50;99.90;;;;;;5053509;28;20020;-69
2021/07/11 01:33:13;;;;;;;7.55;5.30;;;18.60;99.90;;;;;;5070921;28;20119;-70
2021/07/11 01:35:40;;;;;;;5.82;5.18;;;18.50;99.90;;;;;;5053631;28;20032;-70
2021/07/11 01:38:07;;;;;;;5.20;4.65;;;18.50;99.90;;;;;;5052415;28;20028;-69
2021/07/11 01:40:33;;;;;;;5.30;4.78;;;18.60;99.90;;;;;;5052555;28;20033;-69
2021/07/11 01:43:00;;;;;;;4.95;4.30;;;18.60;99.90;;;;;;5069164;28;20473;-68
2021/07/11 01:45:25;;;;;;;5.15;4.63;;;18.60;99.90;;;;;;5071379;28;20370;-71
2021/07/11 01:47:53;;;;;;;5.60;4.18;;;18.60;99.90;;;;;;5052633;28;20074;-70
2021/07/11 01:50:19;;;;;;;5.53;4.45;;;18.50;99.90;;;;;;5070879;28;20445;-70
2021/07/11 01:52:46;;;;;;;6.10;3.75;;;18.40;99.90;;;;;;5070903;28;20424;-69
2021/07/11 01:55:12;;;;;;;5.53;3.75;;;18.50;99.90;;;;;;5051939;28;20131;-70
2021/07/11 01:57:39;;;;;;;3.95;3.55;;;18.50;99.90;;;;;;5053114;28;20025;-69
2021/07/11 02:00:11;;;;;;;5.03;3.00;;;18.50;99.90;;;;;;5052557;28;20028;-69
2021/07/11 02:02:36;;;;;;;8.73;3.67;;;18.50;99.90;;;;;;5071051;28;20037;-69
2021/07/11 02:05:07;;;;;;;5.00;3.60;;;18.50;99.90;;;;;;5070247;28;20120;-69
2021/07/11 02:07:33;;;;;;;4.53;3.58;;;18.50;99.90;;;;;;5052969;28;20123;-69
2021/07/11 02:10:00;;;;;;;5.88;4.00;;;18.50;99.90;;;;;;5052115;28;20450;-69
2021/07/11 02:12:29;;;;;;;4.07;3.30;;;18.60;99.90;;;;;;5052254;28;20480;-69
2021/07/11 02:14:56;;;;;;;7.68;3.42;;;18.50;99.90;;;;;;5051942;28;20123;-69
2021/07/11 02:17:26;;;;;;;4.90;3.40;;;18.60;99.90;;;;;;5052741;28;20473;-69
2021/07/11 02:19:52;;;;;;;4.10;2.65;;;18.50;99.90;;;;;;5052122;28;20113;-69
2021/07/11 02:22:19;;;;;;;3.67;2.63;;;18.50;99.90;;;;;;5052565;28;20028;-69
2021/07/11 02:24:48;;;;;;;4.63;3.05;;;18.50;99.90;;;;;;5070697;28;20051;-69
2021/07/11 02:27:14;;;;;;;5.05;2.78;;;18.50;99.90;;;;;;5069294;28;20031;-70
2021/07/11 02:29:44;;;;;;;4.82;2.58;;;18.50;99.90;;;;;;5071096;28;20029;-69
2021/07/11 02:32:12;;;;;;;3.50;2.13;;;18.40;99.90;;;;;;5052256;28;20488;-69
2021/07/11 02:34:40;;;;;;;6.63;2.47;;;18.40;99.90;;;;;;5052501;28;20040;-69
2021/07/11 02:37:09;;;;;;;6.32;2.40;;;18.40;99.90;;;;;;5070135;28;20025;-69
2021/07/11 02:39:38;;;;;;;2.30;1.98;;;18.40;99.90;;;;;;5070652;28;20025;-69
2021/07/11 02:42:07;;;;;;;3.55;2.28;;;18.50;99.90;;;;;;5069357;28;20474;-69
2021/07/11 02:44:34;;;;;;;3.13;2.40;;;18.50;99.90;;;;;;5070787;28;20046;-68
2021/07/11 02:47:09;;;;;;;4.55;2.20;;;18.50;99.90;;;;;;5052013;28;20035;-69
2021/07/11 02:49:36;;;;;;;3.08;2.05;;;18.40;99.90;;;;;;5052327;28;20047;-68
2021/07/11 02:52:05;;;;;;;6.18;3.13;;;18.50;99.90;;;;;;5069823;28;20417;-69
2021/07/11 02:54:44;;;;;;;5.57;2.88;;;18.40;99.90;;;;;;5054801;28;20385;-68
2021/07/11 02:57:12;;;;;;;2.60;2.10;;;18.40;99.90;;;;;;5073809;28;20094;-68
2021/07/11 02:59:39;;;;;;;3.22;2.47;;;18.40;99.90;;;;;;5056411;28;20565;-69
2021/07/11 03:02:07;;;;;;;5.93;2.30;;;18.40;99.90;;;;;;5073547;28;20481;-69
2021/07/11 03:04:36;;;;;;;3.03;2.50;;;18.40;99.90;;;;;;5074419;28;20477;-69
2021/07/11 03:07:02;;;;;;;4.97;2.35;;;18.40;99.90;;;;;;5055895;28;20107;-69
2021/07/11 03:09:28;;;;;;;4.80;2.30;;;18.40;99.90;;;;;;5056232;28;20124;-68
2021/07/11 03:11:54;;;;;;;7.20;2.53;;;18.40;99.90;;;;;;5073176;28;20064;-70
2021/07/11 03:14:22;;;;;;;4.20;2.63;;;18.40;99.90;;;;;;5074141;28;20032;-68
2021/07/11 03:16:53;;;;;;;4.25;2.10;;;18.40;99.90;;;;;;5074196;28;20035;-69
2021/07/11 03:19:19;;;;;;;3.67;2.20;;;18.40;99.90;;;;;;5056084;28;20017;-69
2021/07/11 03:21:46;;;;;;;3.08;2.25;;;18.40;99.90;;;;;;5055420;28;20110;-69
2021/07/11 03:24:13;;;;;;;2.80;2.60;;;18.40;99.90;;;;;;5073470;28;20501;-70
2021/07/11 03:26:41;;;;;;;3.53;2.33;;;18.40;99.90;;;;;;5073203;28;20025;-69
2021/07/11 03:29:17;;;;;;;2.47;2.10;;;18.50;99.90;;;;;;5073246;28;20078;-70
2021/07/11 03:31:44;;;;;;;8.07;2.47;;;18.50;99.90;;;;;;5055655;28;20024;-69
2021/07/11 03:34:11;;;;;;;2.72;2.10;;;18.40;99.90;;;;;;5054857;28;20056;-70
2021/07/11 03:36:37;;;;;;;7.20;2.42;;;18.50;99.90;;;;;;5073463;28;20099;-69
2021/07/11 03:39:05;;;;;;;10.50;2.95;;;18.30;99.90;;;;;;5055053;28;20056;-69
2021/07/11 03:41:37;;;;;;;5.88;2.90;;;18.40;99.90;;;;;;5054902;28;20039;-70
2021/07/11 03:44:05;;;;;;;5.35;2.60;;;18.30;99.90;;;;;;5073146;28;20082;-70
2021/07/11 03:46:33;;;;;;;6.40;3.63;;;18.30;99.90;;;;;;5073471;28;20103;-69
2021/07/11 03:49:07;;;;;;;7.75;4.10;;;18.30;99.90;;;;;;5073226;28;20535;-70
2021/07/11 03:51:35;;;;;;;7.55;3.53;;;18.30;99.90;;;;;;5055382;28;20051;-69
2021/07/11 03:54:02;;;;;;;4.13;2.67;;;18.30;99.90;;;;;;5072691;28;20135;-69
2021/07/11 03:56:35;;;;;;;4.43;3.72;;;18.30;99.90;;;;;;5072756;28;20154;-69
2021/07/11 03:59:03;;;;;;;4.25;3.85;;;18.30;99.90;;;;;;5054993;28;20044;-69
2021/07/11 04:01:31;;;;;;;6.38;4.32;;;18.30;99.90;;;;;;5055634;28;20078;-69
2021/07/11 04:03:59;;;;;;;4.63;3.75;;;18.20;99.90;;;;;;5054981;28;20075;-69
2021/07/11 04:06:28;;;;;;;7.78;3.90;;;18.30;99.90;;;;;;5072659;28;20108;-69
2021/07/11 04:08:56;;;;;;;4.50;4.10;;;18.30;99.90;;;;;;5055235;28;20048;-69
2021/07/11 04:11:23;;;;;;;5.55;4.68;;;18.40;99.90;;;;;;5054433;28;20028;-68
2021/07/11 04:13:49;;;;;;;4.72;3.85;;;18.30;99.90;;;;;;5073147;28;20029;-68
2021/07/11 04:16:16;;;;;;;5.20;4.00;;;18.30;99.90;;;;;;5072532;28;20028;-68
2021/07/11 04:18:47;;;;;;;8.15;3.58;;;18.30;99.90;;;;;;5054611;28;20454;-70
2021/07/11 04:21:15;;;;;;;5.47;3.42;;;18.10;99.90;;;;;;5054114;28;20025;-69
2021/07/11 04:23:43;;;;;;;4.47;3.83;;;18.20;99.90;;;;;;5072714;28;20133;-69
2021/07/11 04:26:10;;;;;;;7.43;4.22;;;18.20;99.90;;;;;;5073579;28;20478;-69
2021/07/11 04:28:40;;;;;;;7.00;5.18;;;18.10;99.90;;;;;;5074886;28;20035;-68
2021/07/11 04:31:06;;;;;;;5.13;4.68;;;18.10;99.90;;;;;;5092629;28;20016;-70
2021/07/11 04:33:32;;;;;;;7.28;5.07;;;18.10;99.90;;;;;;5092594;28;20389;-69
2021/07/11 04:35:59;;;;;;;5.80;5.20;;;18.10;99.90;;;;;;5092406;28;20032;-71
2021/07/11 04:38:24;;;;;;;8.52;5.28;;;18.10;99.90;;;;;;5092900;28;20028;-69
2021/07/11 04:40:50;;;;;;;6.55;5.75;;;18.20;99.90;;;;;;5092240;28;20038;-69
2021/07/11 04:43:17;;;;;;;8.80;5.15;;;18.10;99.90;;;;;;5073983;28;20031;-69
2021/07/11 04:45:45;;;;;;;7.43;4.63;;;18.20;99.90;;;;;;5092708;28;20024;-70
2021/07/11 04:48:11;;;;;;;6.13;4.60;;;18.20;99.90;;;;;;5092308;28;20035;-69
2021/07/11 04:50:37;;;;;;;6.35;4.70;;;18.20;99.90;;;;;;5073974;28;20032;-70
2021/07/11 04:53:03;;;;;;;8.93;5.00;;;18.20;99.90;;;;;;5073664;28;20032;-70
2021/07/11 04:55:28;;;;;;;7.70;4.57;;;18.30;99.90;;;;;;5092006;28;20028;-69
2021/07/11 04:57:54;;;;;;;5.47;4.90;;;18.20;99.90;;;;;;5074685;28;20377;-69
2021/07/11 05:00:20;;;;;;;6.00;5.10;;;18.20;99.90;;;;;;5092006;28;20354;-69
2021/07/11 05:02:46;;;;;;;7.65;5.20;;;18.20;99.90;;;;;;5074442;28;20028;-69
2021/07/11 05:05:12;;;;;;;5.55;5.05;;;18.20;99.90;;;;;;5073110;28;20100;-70
2021/07/11 05:07:38;;;;;;;9.00;4.90;;;18.20;99.90;;;;;;5092436;28;20020;-70
2021/07/11 05:10:05;;;;;;;11.63;5.03;;;18.20;99.90;;;;;;5072810;28;20047;-70
2021/07/11 05:12:31;;;;;;;8.20;5.10;;;18.20;99.90;;;;;;5073814;28;20391;-69
2021/07/11 05:14:57;;;;;;;6.20;4.45;;;18.30;99.90;;;;;;5092305;28;20103;-69
2021/07/11 05:17:22;;;;;;;6.80;4.88;;;18.30;99.90;;;;;;5091246;28;20028;-69
2021/07/11 05:19:48;;;;;;;5.70;4.68;;;18.30;99.90;;;;;;5092062;28;20412;-69
2021/07/11 05:22:13;;;;;;;5.85;4.78;;;18.40;99.90;;;;;;5091090;28;20036;-69
2021/07/11 05:24:40;;;;;;;6.30;4.63;;;18.30;99.90;;;;;;5083053;28;20040;-69
2021/07/11 05:27:06;;;;;;;6.70;3.83;;;18.40;99.90;;;;;;5070808;28;20028;-69
2021/07/11 05:29:32;;;;;;;4.95;3.75;;;18.40;99.90;;;;;;5071736;28;20025;-69
2021/07/11 05:31:58;;;;;;;5.30;3.42;;;18.40;99.90;;;;;;5071274;28;20078;-69
2021/07/11 05:34:23;;;;;;;7.97;3.92;;;18.50;99.90;;;;;;5070960;28;20036;-70
2021/07/11 05:36:49;;;;;;;4.00;3.28;;;18.60;99.90;;;;;;5071454;28;20033;-69
2021/07/11 05:39:16;;;;;;;3.88;3.15;;;18.50;99.90;;;;;;5070141;28;20024;-69
2021/07/11 05:41:41;;;;;;;4.40;3.05;;;18.60;99.90;;;;;;5053448;28;20047;-69
2021/07/11 05:44:07;;;;;;;12.60;3.47;;;18.70;99.90;;;;;;5070745;28;20029;-69
2021/07/11 05:46:33;;;;;;;4.63;3.22;;;18.50;99.90;;;;;;5071479;28;20081;-69
2021/07/11 05:48:58;;;;;;;4.28;3.22;;;18.60;99.90;;;;;;5055382;28;20046;-68
2021/07/11 05:51:25;;;;;;;9.95;3.15;;;18.60;99.90;;;;;;5052264;28;20434;-68
2021/07/11 05:53:50;;;;;;;5.53;3.13;;;18.60;99.90;;;;;;5052762;28;20050;-69
2021/07/11 05:56:16;;;;;;;5.10;2.92;;;18.60;99.90;;;;;;5052472;28;20025;-69
2021/07/11 05:58:42;;;;;;;8.13;3.35;;;18.70;99.90;;;;;;5071749;28;20032;-68
2021/07/11 06:01:07;;;;;;;3.38;3.03;;;18.60;99.90;;;;;;5052802;28;20454;-70
2021/07/11 06:03:34;;;;;;;5.72;4.15;;;18.60;99.90;;;;;;5051480;28;20031;-69
2021/07/11 06:06:00;;;;;;;6.22;3.25;;;18.60;99.90;;;;;;5047296;28;20060;-69
2021/07/11 06:08:25;;;;;;;9.38;3.65;;;18.50;99.90;;;;;;5052223;28;20059;-69
2021/07/11 06:10:53;;;;;;;6.78;3.50;;;18.50;99.90;;;;;;5070462;28;20028;-70
2021/07/11 06:13:19;;;;;;;6.25;4.13;;;18.50;99.90;;;;;;5051817;28;20068;-68
2021/07/11 06:15:45;;;;;;;4.82;2.70;;;18.60;99.90;;;;;;5051608;28;20119;-70
2021/07/11 06:18:11;;;;;;;8.82;3.38;;;18.60;99.90;;;;;;5050282;28;20510;-69
2021/07/11 06:20:37;;;;;;;10.18;3.10;;;18.60;99.90;;;;;;5043680;28;20115;-69
2021/07/11 06:23:02;;;;;;;6.50;3.30;;;18.50;99.90;;;;;;5071130;28;20496;-69
2021/07/11 06:25:28;;;;;;;8.55;3.03;;;18.60;99.90;;;;;;5077520;28;20123;-68
2021/07/11 06:27:54;;;;;;;5.88;3.22;;;18.60;99.90;;;;;;5088899;28;20441;-69
2021/07/11 06:30:20;;;;;;;7.03;3.35;;;18.40;99.90;;;;;;5089984;28;20112;-69
2021/07/11 06:32:47;;;;;;;3.95;2.72;;;18.50;99.90;;;;;;5090766;28;20024;-69
2021/07/11 06:35:20;;;;;;;6.00;2.90;;;18.50;99.90;;;;;;5088475;28;20050;-69
2021/07/11 06:37:47;;;;;;;4.90;3.28;;;18.40;99.90;;;;;;5090495;28;20092;-69
2021/07/11 06:40:17;;;;;;;12.90;3.28;;;18.40;99.90;;;;;;5089743;28;20028;-69
2021/07/11 06:42:43;;;;;;;5.50;2.90;;;18.50;99.90;;;;;;5091426;28;20099;-69
2021/07/11 06:45:10;;;;;;;3.20;2.88;;;18.50;99.90;;;;;;5090573;28;20112;-69
2021/07/11 06:47:36;;;;;;;3.20;2.85;;;18.50;99.90;;;;;;5090724;28;20044;-69
2021/07/11 06:50:05;;;;;;;7.28;3.15;;;18.50;99.90;;;;;;5090046;28;20075;-69
2021/07/11 06:52:31;;;;;;;3.95;3.40;;;18.50;99.90;;;;;;5089053;28;20386;-68
2021/07/11 06:54:56;;;;;;;5.75;3.00;;;18.40;99.90;;;;;;5088586;28;20028;-69
2021/07/11 06:57:22;;;;;;;7.32;3.80;;;18.50;99.90;;;;;;5088502;28;20032;-68
2021/07/11 06:59:48;;;;;;;3.75;2.72;;;18.50;99.90;;;;;;5080578;28;20038;-69
2021/07/11 07:02:14;;;;;;;5.22;3.05;;;18.50;99.90;;;;;;5069887;28;20024;-69
2021/07/11 07:04:39;;;;;;;5.20;2.80;;;18.50;99.90;;;;;;5069195;28;20094;-69
2021/07/11 07:07:05;;;;;;;5.80;2.67;;;18.60;99.90;;;;;;5070630;28;20113;-69
2021/07/11 07:09:31;;;;;;;5.53;2.63;;;18.60;99.90;;;;;;5069938;28;20028;-68
2021/07/11 07:11:56;;;;;;;3.13;2.67;;;18.60;99.90;;;;;;5069099;28;20017;-68
2021/07/11 07:14:24;;;;;;;4.72;2.10;;;18.60;99.90;;;;;;5068276;28;20056;-69
2021/07/11 07:16:49;;;;;;;7.18;2.72;;;18.70;99.90;;;;;;5070442;28;20028;-68
2021/07/11 07:19:15;;;;;;;3.95;2.65;;;18.60;99.90;;;;;;5068405;28;20086;-68
2021/07/11 07:21:40;;;;;;;6.78;2.70;;;18.60;99.90;;;;;;5081147;28;20055;-67
2021/07/11 07:24:06;;;;;;;4.68;2.63;;;18.60;99.90;;;;;;5077243;28;20095;-72
2021/07/11 07:26:32;;;;;;;2.60;2.35;;;18.60;99.90;;;;;;5069657;28;20028;-69
2021/07/11 07:28:58;;;;;;;3.50;2.70;;;18.60;99.90;;;;;;5070529;28;20323;-68
2021/07/11 07:31:23;;;;;;;2.20;1.98;;;18.60;99.90;;;;;;5051190;28;20060;-66
2021/07/11 07:33:49;;;;;;;4.47;3.00;;;18.60;99.90;;;;;;5051911;28;20036;-68
2021/07/11 07:36:15;;;;;;;7.18;2.42;;;18.60;99.90;;;;;;5051341;28;20338;-72
2021/07/11 07:38:40;;;;;;;8.75;2.45;;;19.00;99.90;;;;;;5051005;28;20035;-69
2021/07/11 07:41:06;;;;;;;5.28;2.15;;;19.00;99.90;;;;;;5066685;28;20492;-72
2021/07/11 07:43:32;;;;;;;3.63;1.65;;;19.20;99.90;;;;;;5072907;28;20419;-72
2021/07/11 07:45:58;;;;;;;5.18;1.65;;;19.30;99.90;;;;;;5055542;28;20021;-72
2021/07/11 07:48:23;;;;;;;3.65;1.70;;;19.80;99.90;;;;;;5054164;28;20031;-72
2021/07/11 07:50:50;;;;;;;2.33;1.73;;;20.10;99.90;;;;;;5055034;28;20123;-72
2021/07/11 07:53:16;;;;;;;4.43;1.55;;;19.70;99.90;;;;;;5071976;28;20028;-73
2021/07/11 07:55:41;;;;;;;3.15;2.22;;;19.60;99.90;;;;;;5055016;28;20040;-70
2021/07/11 07:58:07;;;;;;;5.38;2.35;;;19.40;99.90;;;;;;5055183;28;20029;-70
2021/07/11 08:00:33;;;;;;;5.40;2.42;;;19.20;99.90;;;;;;5042560;28;20059;-69
2021/07/11 08:02:59;;;;;;;1.88;1.75;;;19.10;99.90;;;;;;5073030;28;20033;-67
2021/07/11 08:05:26;;;;;;;5.15;1.80;;;19.00;99.90;;;;;;5052282;28;20020;-68
2021/07/11 08:07:52;;;;;;;4.75;1.92;;;18.90;99.90;;;;;;5054288;28;20060;-67
2021/07/11 08:10:17;;;;;;;3.20;2.05;;;18.80;99.90;;;;;;5047363;28;20055;-68
2021/07/11 08:12:45;;;;;;;4.47;1.85;;;18.80;99.90;;;;;;5040834;28;20043;-68
2021/07/11 08:15:16;;;;;;;4.20;2.20;;;18.80;99.90;;;;;;5034873;28;20025;-75
2021/07/11 08:17:44;;;;;;;3.20;2.38;;;18.70;99.90;;;;;;5036524;28;20037;-69
2021/07/11 08:20:10;;;;;;;4.20;2.03;;;18.70;99.90;;;;;;5069658;28;20055;-73
2021/07/11 08:22:36;;;;;;;2.08;1.88;;;18.80;99.90;;;;;;5034428;28;20033;-74
2021/07/11 08:25:03;;;;;;;6.22;2.17;;;18.80;99.90;;;;;;5061908;28;20136;-67
2021/07/11 08:27:28;;;;;;;5.80;2.60;;;18.90;99.90;;;;;;5083832;28;20032;-66
2021/07/11 08:29:54;;;;;;;4.32;2.53;;;18.80;99.90;;;;;;5092559;28;20029;-54
2021/07/11 08:32:20;;;;;;;2.13;1.60;;;18.90;99.90;;;;;;5089597;28;20032;-69
2021/07/11 08:34:46;;;;;;;2.53;2.33;;;19.00;99.90;;;;;;5074498;28;20036;-67
2021/07/11 08:37:11;;;;;;;4.70;2.40;;;18.90;99.90;;;;;;5083567;28;20118;-74
2021/07/11 08:39:37;;;;;;;2.55;1.98;;;19.00;99.90;;;;;;5088243;28;20024;-68
2021/07/11 08:42:06;;;;;;;1.85;1.55;;;19.10;99.90;;;;;;5071096;28;20339;-67
2021/07/11 08:44:33;;;;;;;2.28;1.63;;;19.00;99.90;;;;;;5091853;28;20040;-68
2021/07/11 08:46:58;;;;;;;2.08;1.77;;;19.20;99.90;;;;;;5077555;28;20476;-68
2021/07/11 08:49:24;;;;;;;3.25;2.70;;;19.30;99.90;;;;;;5082582;28;20021;-67
2021/07/11 08:51:56;;;;;;;2.50;2.30;;;19.30;99.90;;;;;;5073556;28;20036;-66
2021/07/11 08:54:22;;;;;;;3.40;2.20;;;19.30;99.90;;;;;;5069076;28;20094;-68
2021/07/11 08:56:48;;;;;;;2.78;2.20;;;19.40;99.90;;;;;;5072556;28;20032;-67
2021/07/11 08:59:14;;;;;;;4.28;3.50;;;19.40;99.90;;;;;;5071087;28;20128;-68
2021/07/11 09:01:39;;;;;;;3.45;3.10;;;19.40;99.90;;;;;;5070361;28;20123;-67
2021/07/11 09:04:07;;;;;;;3.40;2.75;;;19.40;99.90;;;;;;5069233;28;20035;-69
2021/07/11 09:06:59;;;;;;;5.45;2.65;;;19.50;99.90;;;;;;5070033;28;20469;-68
2021/07/11 09:09:29;;;;;;;3.70;3.40;;;19.40;99.90;;;;;;5080627;28;20036;-68
2021/07/11 09:12:03;;;;;;;3.83;3.22;;;19.30;99.90;;;;;;5087961;28;20518;-68
2021/07/11 09:14:31;;;;;;;4.88;4.25;;;19.20;99.90;;;;;;5079240;28;20036;-67
2021/07/11 09:17:00;;;;;;;7.40;4.22;;;19.20;99.90;;;;;;5089952;28;20123;-67
2021/07/11 09:19:45;;;;;;;4.25;3.85;;;19.50;99.90;;;;;;5089395;28;20462;-68
2021/07/11 09:22:16;;;;;;;7.70;4.60;;;19.60;99.90;;;;;;5077556;28;20032;-66
2021/07/11 09:24:54;;;;;;;5.38;4.35;;;19.60;99.90;;;;;;5069303;28;20510;-70
2021/07/11 09:27:26;;;;;;;5.47;4.65;;;19.70;99.90;;;;;;5069486;28;20063;-68
2021/07/11 09:29:52;;;;;;;4.97;4.53;;;19.70;99.90;;;;;;5070246;28;20330;-69
2021/07/11 09:32:32;;;;;;;6.72;4.57;;;19.70;99.90;;;;;;5070954;28;20028;-69
2021/07/11 09:35:27;;;;;;;4.88;4.40;;;19.80;99.90;;;;;;5072437;28;20027;-68
2021/07/11 09:37:58;;;;;;;6.00;4.00;;;19.90;99.90;;;;;;5057491;28;20041;-70
2021/07/11 09:40:27;;;;;;;8.15;4.20;;;20.10;99.90;;;;;;5069130;28;20067;-71
2021/07/11 09:42:57;;;;;;;4.82;3.92;;;20.30;99.90;;;;;;5076413;28;20029;-68
2021/07/11 09:45:30;;;;;;;6.75;4.07;;;20.30;99.90;;;;;;5077884;28;20476;-67
2021/07/11 09:48:07;;;;;;;4.72;3.83;;;20.60;99.90;;;;;;5087062;28;20057;-68
2021/07/11 09:50:33;;;;;;;4.68;3.92;;;20.70;99.90;;;;;;5075175;28;20036;-68
2021/07/11 09:53:00;;;;;;;7.47;4.22;;;20.90;99.90;;;;;;5085274;28;20080;-68
2021/07/11 09:55:31;;;;;;;4.20;3.80;;;20.80;99.90;;;;;;5072518;28;20047;-68
2021/07/11 09:57:59;;;;;;;5.20;3.45;;;21.00;99.90;;;;;;5071254;28;20056;-70
2021/07/11 10:00:29;;;;;;;8.60;3.60;;;21.30;99.90;;;;;;5069401;28;20119;-68
2021/07/11 10:03:04;;;;;;;6.13;4.07;;;21.60;99.90;;;;;;5084277;28;20020;-69
2021/07/11 10:05:31;;;;;;;4.50;4.10;;;21.70;99.90;;;;;;5074678;28;20445;-67
2021/07/11 10:07:58;;;;;;;5.35;4.85;;;21.70;99.90;;;;;;5079007;28;20482;-68
2021/07/11 10:10:27;;;;;;;5.05;4.55;;;21.70;99.90;;;;;;5087463;28;20059;-67
2021/07/11 10:12:54;;;;;;;6.05;4.57;;;21.80;99.90;;;;;;5079566;28;20433;-68
2021/07/11 10:15:28;;;;;;;4.28;3.88;;;22.00;99.90;;;;;;5087772;28;20027;-69
2021/07/11 10:18:04;;;;;;;4.10;3.80;;;22.30;99.90;;;;;;5075694;28;20028;-68
2021/07/11 10:20:49;;;;;;;4.35;3.92;;;22.30;99.90;;;;;;5069791;28;20021;-68
2021/07/11 10:23:33;;;;;;;19.00;4.95;;;22.10;99.90;;;;;;5073342;28;20346;-68
2021/07/11 10:26:07;;;;;;;4.63;4.22;;;22.00;99.90;;;;;;5069573;28;20135;-67
2021/07/11 10:28:42;;;;;;;7.18;3.95;;;22.20;99.90;;;;;;5074972;28;20031;-69
2021/07/11 10:31:26;;;;;;;4.65;4.25;;;22.50;99.90;;;;;;5069962;28;20504;-68
2021/07/11 10:33:55;;;;;;;4.75;3.95;;;22.60;99.90;;;;;;5070679;28;20029;-53
2021/07/11 10:36:32;;;;;;;3.20;2.88;;;22.90;99.90;;;;;;5075594;28;20467;-54
2021/07/11 10:38:59;;;;;;;5.07;4.60;;;23.10;99.90;;;;;;5088662;28;20031;-66
2021/07/11 10:41:30;;;;;;;4.00;3.58;;;23.10;99.90;;;;;;5089803;28;20076;-67
2021/07/11 10:43:59;;;;;;;;;;;22.90;99.90;;;;;;5074607;28;20064;-67
2021/07/11 10:46:51;;;;;;;8.70;4.03;;;23.00;99.90;;;;;;5068416;28;20273;-65
2021/07/11 10:49:33;;;;;;;5.65;5.03;;;22.90;99.90;;;;;;5070598;28;20036;-66
2021/07/11 10:52:04;;;;;;;4.68;4.38;;;22.90;99.90;;;;;;5070991;28;20060;-66
2021/07/11 10:54:36;;;;;;;3.92;3.63;;;22.90;99.90;;;;;;5080405;28;20050;-67
2021/07/11 10:57:11;;;;;;;4.15;3.75;;;22.90;99.90;;;;;;5087937;28;20081;-66
2021/07/11 10:59:47;;;;;;;3.90;3.30;;;22.50;99.90;;;;;;5070496;28;20047;-66
2021/07/11 11:02:15;;;;;;;3.47;3.25;;;22.30;99.90;;;;;;5075021;28;20036;-66
2021/07/11 11:04:43;;;;;;;5.40;3.60;;;22.10;99.90;;;;;;5074100;28;20032;-65
2021/07/11 11:07:19;;;;;;;3.92;3.33;;;22.10;99.90;;;;;;5087943;28;20358;-66
2021/07/11 11:09:48;;;;;;;3.30;3.00;;;22.30;99.90;;;;;;5089897;28;20036;-69
2021/07/11 11:12:26;;;;;;;3.17;2.90;;;22.50;99.90;;;;;;5084166;28;20131;-68
2021/07/11 11:15:11;;;;;;;3.45;2.45;;;22.60;99.90;;;;;;5077380;28;20036;-66
2021/07/11 11:17:37;;;;;;;4.13;3.35;;;22.30;99.90;;;;;;5079186;28;20095;-66
2021/07/11 11:20:08;;;;;;;3.55;3.25;;;22.00;99.90;;;;;;5076050;28;20113;-65
2021/07/11 11:22:35;;;;;;;2.90;2.70;;;22.00;99.90;;;;;;5076702;28;20081;-65
2021/07/11 11:25:02;;;;;;;4.35;3.38;;;22.10;99.90;;;;;;5067723;28;20103;-65
2021/07/11 11:27:36;;;;;;;3.20;3.00;;;22.30;99.90;;;;;;5060586;28;20107;-66
2021/07/11 11:30:08;;;;;;;3.08;2.80;;;22.20;99.90;;;;;;5070578;28;20173;-66
2021/07/11 11:32:34;;;;;;;2.67;2.35;;;22.30;99.90;;;;;;5072029;28;20362;-64
2021/07/11 11:34:59;;;;;;;8.52;3.88;;;22.40;99.90;;;;;;5060322;28;20025;-66
2021/07/11 11:37:25;;;;;;;3.45;3.13;;;22.40;99.90;;;;;;5034694;28;20029;-66
2021/07/11 11:39:53;;;;;;;4.40;2.38;;;22.30;99.90;;;;;;5052802;28;20078;-67
2021/07/11 11:42:21;;;;;;;3.63;2.75;;;22.40;99.90;;;;;;5051633;28;20519;-72
2021/07/11 11:44:47;;;;;;;3.88;2.88;;;22.60;99.90;;;;;;5058511;28;20135;-67
2021/07/11 11:47:13;;;;;;;4.18;2.63;;;22.60;99.90;;;;;;5071582;28;20475;-66
2021/07/11 11:49:41;;;;;;;2.97;2.67;;;22.60;99.90;;;;;;5071068;28;20637;-66
2021/07/11 11:52:07;;;;;;;6.72;3.15;;;22.40;99.90;;;;;;5047821;28;20065;-66
2021/07/11 11:54:44;;;;;;;3.42;3.03;;;22.20;99.90;;;;;;5069799;28;20070;-66
2021/07/11 11:57:10;;;;;;;4.75;3.22;;;22.00;99.90;;;;;;5034595;28;20036;-66
2021/07/11 11:59:37;;;;;;;3.40;3.05;;;22.00;99.90;;;;;;5065656;28;20024;-68
2021/07/11 12:02:05;;;;;;;4.72;3.03;;;22.00;99.90;;;;;;5071988;28;20037;-67
2021/07/11 12:04:31;;;;;;;3.35;3.05;;;22.10;99.90;;;;;;5039753;28;20110;-66
2021/07/11 12:06:58;;;;;;;6.97;3.20;;;22.00;99.90;;;;;;5065904;28;20119;-69
2021/07/11 12:09:26;;;;;;;4.03;3.10;;;21.90;99.90;;;;;;5053304;28;20035;-66
2021/07/11 12:12:02;;;;;;;3.63;3.33;;;21.90;99.90;;;;;;5033589;28;20593;-56
2021/07/11 12:14:27;;;;;;;3.38;3.08;;;21.80;99.90;;;;;;5051148;28;20064;-54
2021/07/11 12:16:58;;;;;;;4.20;3.80;;;21.70;99.90;;;;;;5033231;28;20056;-57
2021/07/11 12:19:24;;;;;;;4.20;3.33;;;21.70;99.90;;;;;;5050984;28;20459;-55
2021/07/11 12:21:49;;;;;;;4.00;3.63;;;21.70;99.90;;;;;;5052280;28;20090;-54
2021/07/11 12:24:18;;;;;;;3.95;3.65;;;21.80;99.90;;;;;;5051832;28;20481;-55
2021/07/11 12:26:50;;;;;;;4.80;4.40;;;21.50;99.90;;;;;;5050950;28;20025;-54
2021/07/11 12:29:25;;;;;;;4.07;3.67;;;21.30;99.90;;;;;;5041355;28;20072;-56
2021/07/11 12:31:58;;;;;;;4.88;3.95;;;21.00;99.90;;;;;;5054849;28;20032;-54
2021/07/11 12:34:24;;;;;;;5.00;4.32;;;20.60;99.90;;;;;;5041494;28;20064;-54
2021/07/11 12:37:00;;;;;;;5.28;4.57;;;20.50;99.90;;;;;;5051797;28;20442;-56
2021/07/11 12:39:27;;;;;;;5.28;4.75;;;20.60;99.90;;;;;;5050283;28;20128;-54
2021/07/11 12:41:54;;;;;;;8.77;4.57;;;20.80;99.90;;;;;;5052852;28;20032;-53
2021/07/11 12:44:40;;;;;;;5.53;4.38;;;20.70;99.90;;;;;;5052774;28;20506;-72
2021/07/11 12:47:07;;;;;;;7.05;4.95;;;20.70;99.90;;;;;;5040922;28;20339;-76
2021/07/11 12:49:34;;;;;;;4.38;3.97;;;20.70;99.90;;;;;;5039576;28;20028;-76
2021/07/11 12:52:00;;;;;;;7.10;4.70;;;20.80;99.90;;;;;;5046603;28;20028;-75
2021/07/11 12:54:26;;;;;;;9.02;5.25;;;20.90;99.90;;;;;;5052837;28;20500;-75